createdAt,value
2023-04-06T00:01:14.759Z,7.35
2023-04-06T00:03:43.757Z,6.72
2023-04-06T00:06:17.168Z,6.57
2023-04-06T00:08:44.433Z,6.63
2023-04-06T00:11:11.487Z,6.70
2023-04-06T00:13:38.501Z,6.55
2023-04-06T00:16:06.994Z,6.25
2023-04-06T00:18:36.988Z,7.10
2023-04-06T00:21:04.626Z,6.90
2023-04-06T00:23:31.706Z,6.43
2023-04-06T00:25:58.439Z,6.93
2023-04-06T00:28:28.131Z,7.00
2023-04-06T00:30:56.498Z,6.50
2023-04-06T00:33:26.461Z,6.22
2023-04-06T00:35:53.381Z,5.93
2023-04-06T00:38:20.161Z,6.18
2023-04-06T00:40:46.721Z,6.45
2023-04-06T00:43:14.006Z,6.03
2023-04-06T00:45:43.497Z,6.35
2023-04-06T00:48:10.428Z,6.00
2023-04-06T00:50:37.261Z,5.80
2023-04-06T00:53:04.025Z,6.03
2023-04-06T00:55:30.894Z,5.55
2023-04-06T00:57:58.528Z,6.03
2023-04-06T01:00:25.512Z,5.45
2023-04-06T01:02:54.852Z,5.53
2023-04-06T01:05:21.734Z,5.38
2023-04-06T01:07:48.416Z,5.25
2023-04-06T01:10:25.682Z,4.85
2023-04-06T01:12:52.718Z,5.25
2023-04-06T01:15:19.609Z,5.60
2023-04-06T01:17:46.293Z,6.13
2023-04-06T01:20:13.197Z,5.38
2023-04-06T01:22:40.260Z,5.30
2023-04-06T01:25:07.989Z,5.78
2023-04-06T01:27:34.860Z,5.15
2023-04-06T01:30:01.833Z,5.38
2023-04-06T01:32:28.726Z,5.10
2023-04-06T01:34:56.042Z,5.43
2023-04-06T01:37:23.097Z,5.10
2023-04-06T01:39:52.511Z,5.57
2023-04-06T01:42:19.458Z,5.60
2023-04-06T01:44:46.924Z,5.50
2023-04-06T01:47:13.668Z,5.88
2023-04-06T01:49:40.935Z,5.38
2023-04-06T01:52:07.879Z,5.28
2023-04-06T01:54:34.830Z,5.57
2023-04-06T01:57:01.975Z,5.47
2023-04-06T01:59:29.097Z,5.35
2023-04-06T02:01:56.344Z,5.55
2023-04-06T02:04:23.195Z,5.57
2023-04-06T02:06:49.836Z,5.63
2023-04-06T02:09:17.148Z,5.68
2023-04-06T02:11:44.171Z,5.40
2023-04-06T02:14:11.053Z,5.18
2023-04-06T02:16:40.499Z,5.47
2023-04-06T02:19:07.942Z,5.45
2023-04-06T02:21:35.078Z,5.53
2023-04-06T02:24:02.032Z,6.05
2023-04-06T02:26:32.167Z,5.57
2023-04-06T02:28:59.480Z,5.68
2023-04-06T02:31:26.691Z,5.88
2023-04-06T02:33:53.617Z,6.30
2023-04-06T02:36:21.024Z,5.68
2023-04-06T02:38:47.658Z,6.30
2023-04-06T02:41:14.791Z,5.95
2023-04-06T02:43:44.608Z,6.40
2023-04-06T02:46:13.955Z,6.03
2023-04-06T02:48:40.760Z,5.65
2023-04-06T02:51:08.040Z,6.65
2023-04-06T02:53:37.840Z,6.20
2023-04-06T02:56:04.729Z,6.35
2023-04-06T02:58:34.573Z,6.00
2023-04-06T03:01:01.813Z,6.68
2023-04-06T03:03:29.160Z,6.00
2023-04-06T03:05:57.503Z,6.20
2023-04-06T03:08:24.157Z,6.55
2023-04-06T03:10:51.310Z,6.60
2023-04-06T03:13:18.157Z,6.95
2023-04-06T03:15:45.174Z,6.78
2023-04-06T03:18:12.202Z,7.00
2023-04-06T03:20:41.679Z,6.45
2023-04-06T03:23:08.692Z,6.65
2023-04-06T03:25:35.582Z,6.82
2023-04-06T03:28:02.412Z,6.72
2023-04-06T03:30:29.157Z,7.35
2023-04-06T03:32:56.156Z,6.50
2023-04-06T03:35:24.895Z,6.47
2023-04-06T03:37:51.752Z,6.40
2023-04-06T03:40:18.702Z,6.57
2023-04-06T03:42:45.670Z,6.68
2023-04-06T03:45:14.152Z,6.50
2023-04-06T03:47:41.433Z,6.97
2023-04-06T03:50:08.562Z,6.70
2023-04-06T03:52:36.233Z,6.93
2023-04-06T03:55:03.504Z,6.50
2023-04-06T03:57:30.530Z,6.00
2023-04-06T03:59:57.700Z,6.57
2023-04-06T04:02:24.847Z,6.10
2023-04-06T04:04:52.297Z,6.50
2023-04-06T04:07:22.234Z,7.22
2023-04-06T04:09:49.089Z,7.03
2023-04-06T04:12:17.975Z,6.75
2023-04-06T04:14:45.347Z,6.57
2023-04-06T04:17:56.840Z,6.28
2023-04-06T04:20:23.931Z,6.28
2023-04-06T04:22:50.917Z,7.10
2023-04-06T04:25:18.074Z,6.32
2023-04-06T04:27:44.924Z,6.65
2023-04-06T04:30:11.876Z,6.18
2023-04-06T04:32:38.871Z,6.32
2023-04-06T04:35:06.403Z,6.47
2023-04-06T04:37:33.657Z,6.45
2023-04-06T04:40:00.616Z,6.53
2023-04-06T04:42:27.772Z,6.50
2023-04-06T04:44:54.528Z,6.35
2023-04-06T04:47:21.258Z,6.28
2023-04-06T04:49:48.012Z,6.78
2023-04-06T04:52:14.598Z,6.60
2023-04-06T04:54:42.226Z,5.47
2023-04-06T04:57:08.960Z,6.10
2023-04-06T04:59:36.088Z,6.47
2023-04-06T05:02:03.084Z,5.80
2023-04-06T05:04:29.737Z,6.00
2023-04-06T05:07:06.241Z,6.80
2023-04-06T05:09:32.994Z,6.65
2023-04-06T05:12:00.028Z,6.78
2023-04-06T05:14:27.009Z,6.10
2023-04-06T05:16:54.012Z,6.45
2023-04-06T05:19:20.973Z,5.88
2023-04-06T05:21:47.654Z,6.35
2023-04-06T05:24:14.341Z,6.53
2023-04-06T05:26:41.144Z,6.43
2023-04-06T05:29:08.125Z,7.28
2023-04-06T05:31:34.985Z,6.97
2023-04-06T05:34:01.814Z,6.65
2023-04-06T05:36:28.527Z,6.60
2023-04-06T05:38:56.455Z,6.93
2023-04-06T05:41:25.607Z,6.75
2023-04-06T05:43:52.521Z,7.10
2023-04-06T05:46:19.710Z,7.05
2023-04-06T05:48:47.409Z,6.65
2023-04-06T05:51:14.191Z,6.85
2023-04-06T05:53:44.105Z,7.13
2023-04-06T05:56:11.011Z,6.18
2023-04-06T05:58:39.551Z,6.93
2023-04-06T06:01:06.399Z,7.15
2023-04-06T06:03:33.246Z,6.63
2023-04-06T06:06:05.370Z,6.30
2023-04-06T06:08:32.419Z,6.28
2023-04-06T06:10:59.363Z,7.28
2023-04-06T06:13:26.238Z,6.78
2023-04-06T06:15:55.126Z,6.68
2023-04-06T06:18:21.901Z,6.80
2023-04-06T06:20:48.575Z,6.97
2023-04-06T06:23:15.307Z,6.20
2023-04-06T06:25:41.879Z,6.20
2023-04-06T06:28:08.483Z,6.47
2023-04-06T06:30:35.244Z,6.70
2023-04-06T06:33:01.986Z,6.40
2023-04-06T06:35:28.845Z,5.70
2023-04-06T06:37:55.536Z,6.53
2023-04-06T06:40:25.140Z,6.38
2023-04-06T06:42:52.668Z,6.63
2023-04-06T06:45:19.872Z,6.53
2023-04-06T06:47:49.856Z,6.38
2023-04-06T06:50:16.617Z,6.47
2023-04-06T06:52:43.404Z,6.28
2023-04-06T06:55:10.901Z,6.65
2023-04-06T06:57:37.879Z,6.20
2023-04-06T07:00:06.586Z,6.15
2023-04-06T07:02:33.372Z,5.90
2023-04-06T07:05:00.120Z,6.30
2023-04-06T07:07:26.779Z,6.30
2023-04-06T07:09:53.775Z,6.55
2023-04-06T07:12:20.734Z,6.30
2023-04-06T07:14:47.488Z,6.60
2023-04-06T07:17:14.340Z,6.45
2023-04-06T07:19:41.729Z,6.22
2023-04-06T07:22:08.534Z,6.68
2023-04-06T07:24:35.390Z,6.60
2023-04-06T07:27:03.167Z,6.63
2023-04-06T07:29:35.739Z,6.80
2023-04-06T07:32:02.839Z,6.90
2023-04-06T07:34:29.693Z,7.22
2023-04-06T07:36:58.027Z,7.43
2023-04-06T07:39:24.672Z,7.20
2023-04-06T07:41:51.517Z,7.50
2023-04-06T07:44:18.221Z,7.60
2023-04-06T07:46:45.119Z,7.15
2023-04-06T07:49:12.267Z,7.85
2023-04-06T07:51:39.680Z,7.95
2023-04-06T07:54:06.693Z,7.68
2023-04-06T07:56:33.799Z,7.93
2023-04-06T07:59:00.636Z,7.35
2023-04-06T08:01:28.580Z,7.00
2023-04-06T08:03:56.824Z,7.32
2023-04-06T08:06:26.352Z,7.30
2023-04-06T08:08:54.755Z,7.03
2023-04-06T08:11:22.303Z,7.10
2023-04-06T08:13:49.150Z,6.65
2023-04-06T08:16:16.627Z,7.10
2023-04-06T08:18:43.414Z,6.95
2023-04-06T08:21:10.784Z,6.88
2023-04-06T08:23:37.531Z,6.10
2023-04-06T08:26:04.135Z,5.93
2023-04-06T08:28:30.945Z,6.40
2023-04-06T08:30:57.899Z,6.13
2023-04-06T08:33:24.720Z,5.85
2023-04-06T08:35:52.000Z,5.72
2023-04-06T08:38:19.086Z,6.03
2023-04-06T08:40:45.987Z,5.90
2023-04-06T08:43:14.718Z,5.80
2023-04-06T08:45:42.455Z,5.40
2023-04-06T08:48:09.751Z,5.30
2023-04-06T08:50:36.542Z,5.57
2023-04-06T08:53:03.476Z,5.35
2023-04-06T08:55:30.748Z,5.45
2023-04-06T08:57:57.610Z,4.85
2023-04-06T09:00:24.877Z,5.03
2023-04-06T09:02:53.661Z,5.32
2023-04-06T09:05:20.818Z,5.45
2023-04-06T09:07:47.533Z,4.93
2023-04-06T09:10:14.192Z,4.75
2023-04-06T09:12:41.157Z,4.65
2023-04-06T09:15:18.346Z,4.50
2023-04-06T09:17:45.104Z,4.25
2023-04-06T09:20:12.441Z,4.38
2023-04-06T09:22:39.743Z,4.10
2023-04-06T09:25:06.871Z,4.35
2023-04-06T09:27:39.875Z,4.28
2023-04-06T09:30:11.128Z,4.72
2023-04-06T09:32:48.184Z,4.18
2023-04-06T09:35:15.709Z,4.20
2023-04-06T09:37:43.233Z,4.07
2023-04-06T09:40:10.074Z,4.13
2023-04-06T09:42:37.262Z,3.78
2023-04-06T09:45:04.491Z,3.80
2023-04-06T09:47:34.564Z,3.55
2023-04-06T09:50:01.579Z,3.60
2023-04-06T09:52:30.744Z,3.38
2023-04-06T09:54:59.868Z,3.70
2023-04-06T09:57:30.488Z,3.53
2023-04-06T10:00:14.539Z,3.42
2023-04-06T10:03:01.035Z,3.33
2023-04-06T10:05:31.061Z,3.30
2023-04-06T10:08:00.676Z,3.47
2023-04-06T10:10:29.368Z,3.22
2023-04-06T10:12:57.137Z,3.00
2023-04-06T10:15:24.301Z,3.35
2023-04-06T10:17:51.382Z,3.20
2023-04-06T10:20:24.436Z,2.65
2023-04-06T10:22:58.234Z,3.28
2023-04-06T10:25:29.228Z,3.03
2023-04-06T10:28:03.163Z,3.00
2023-04-06T10:30:30.354Z,2.90
2023-04-06T10:32:57.285Z,3.03
2023-04-06T10:35:25.185Z,2.83
2023-04-06T10:37:53.412Z,2.70
2023-04-06T10:40:24.613Z,2.42
2023-04-06T10:42:51.673Z,2.17
2023-04-06T10:45:25.797Z,2.33
2023-04-06T10:47:56.517Z,2.55
2023-04-06T10:50:23.887Z,2.13
2023-04-06T10:53:00.768Z,2.60
2023-04-06T10:55:29.239Z,2.40
2023-04-06T10:57:56.397Z,2.72
2023-04-06T11:00:23.355Z,1.98
2023-04-06T11:02:50.439Z,2.13
2023-04-06T11:05:18.398Z,2.42
2023-04-06T11:07:45.623Z,2.28
2023-04-06T11:10:16.979Z,2.50
2023-04-06T11:12:45.469Z,2.28
2023-04-06T11:15:12.326Z,2.30
2023-04-06T11:17:39.309Z,2.30
2023-04-06T11:20:11.166Z,2.40
2023-04-06T11:22:37.992Z,2.60
2023-04-06T11:27:36.188Z,2.47
2023-04-06T11:30:03.849Z,2.25
2023-04-06T11:32:30.841Z,2.08
2023-04-06T11:34:59.297Z,2.30
2023-04-06T11:37:28.441Z,2.30
2023-04-06T11:39:56.000Z,1.88
2023-04-06T11:42:23.847Z,2.35
2023-04-06T11:44:58.354Z,2.40
2023-04-06T11:47:29.740Z,2.15
2023-04-06T11:49:56.468Z,2.40
2023-04-06T11:52:27.386Z,2.45
2023-04-06T11:54:55.492Z,2.45
2023-04-06T11:57:25.806Z,2.55
2023-04-06T11:59:53.110Z,2.65
2023-04-06T12:02:19.936Z,2.17
2023-04-06T12:04:47.373Z,2.40
2023-04-06T12:07:14.541Z,2.55
2023-04-06T12:09:41.659Z,2.17
2023-04-06T12:12:08.744Z,2.30
2023-04-06T12:14:37.001Z,2.50
2023-04-06T12:17:04.501Z,2.47
2023-04-06T12:19:32.579Z,2.60
2023-04-06T12:21:59.951Z,2.15
2023-04-06T12:24:26.732Z,2.85
2023-04-06T12:27:06.497Z,2.65
2023-04-06T12:29:36.644Z,2.30
2023-04-06T12:32:03.503Z,2.47
2023-04-06T12:34:30.750Z,2.30
2023-04-06T12:36:58.449Z,2.40
2023-04-06T12:39:25.376Z,2.10
2023-04-06T12:41:54.680Z,2.47
2023-04-06T12:44:21.629Z,2.15
2023-04-06T12:46:48.770Z,2.17
2023-04-06T12:49:18.000Z,2.47
2023-04-06T12:51:44.916Z,2.10
2023-04-06T12:54:13.111Z,2.10
2023-04-06T12:56:40.072Z,2.10
2023-04-06T12:59:07.375Z,2.25
2023-04-06T13:01:34.279Z,2.00
2023-04-06T13:04:00.832Z,2.38
2023-04-06T13:06:29.148Z,2.08
2023-04-06T13:08:56.363Z,2.08
2023-04-06T13:11:27.159Z,2.17
2023-04-06T13:13:55.179Z,1.98
2023-04-06T13:16:21.819Z,1.92
2023-04-06T13:18:48.554Z,1.77
2023-04-06T13:21:17.228Z,1.90
2023-04-06T13:23:44.351Z,2.13
2023-04-06T13:26:11.285Z,1.63
2023-04-06T13:28:40.041Z,1.90
2023-04-06T13:31:07.751Z,2.00
2023-04-06T13:33:37.567Z,2.20
2023-04-06T13:36:04.771Z,1.77
2023-04-06T13:38:31.621Z,1.80
2023-04-06T13:40:58.779Z,1.67
2023-04-06T13:43:27.346Z,1.60
2023-04-06T13:45:56.020Z,1.75
2023-04-06T13:48:23.018Z,1.80
2023-04-06T13:50:49.770Z,1.70
2023-04-06T13:53:16.780Z,1.80
2023-04-06T13:55:43.550Z,1.50
2023-04-06T13:58:10.400Z,1.55
2023-04-06T14:00:37.941Z,1.67
2023-04-06T14:03:04.889Z,1.70
2023-04-06T14:05:32.437Z,1.52
2023-04-06T14:07:59.158Z,1.88
2023-04-06T14:10:28.595Z,1.80
2023-04-06T14:12:55.756Z,1.90
2023-04-06T14:15:23.783Z,2.05
2023-04-06T14:17:51.078Z,1.60
2023-04-06T14:20:17.787Z,1.60
2023-04-06T14:22:44.851Z,1.80
2023-04-06T14:25:14.556Z,1.70
2023-04-06T14:27:41.233Z,1.50
2023-04-06T14:30:09.561Z,1.27
2023-04-06T14:32:37.804Z,1.67
2023-04-06T14:35:07.065Z,1.73
2023-04-06T14:37:34.306Z,1.83
2023-04-06T14:40:01.052Z,1.50
2023-04-06T14:42:27.707Z,1.58
2023-04-06T14:44:55.018Z,1.73
2023-04-06T14:47:22.544Z,1.67
2023-04-06T14:49:51.633Z,1.70
2023-04-06T14:52:18.438Z,1.80
2023-04-06T14:54:45.341Z,1.58
2023-04-06T14:57:12.031Z,1.40
2023-04-06T14:59:40.144Z,1.40
2023-04-06T15:02:07.536Z,1.48
2023-04-06T15:04:37.724Z,1.45
2023-04-06T15:07:04.687Z,1.80
2023-04-06T15:09:31.797Z,1.70
2023-04-06T15:11:58.648Z,1.42
2023-04-06T15:14:25.593Z,1.58
2023-04-06T15:16:52.312Z,1.60
2023-04-06T15:19:19.206Z,1.40
2023-04-06T15:21:46.052Z,1.50
2023-04-06T15:24:12.700Z,1.30
2023-04-06T15:26:39.480Z,1.77
2023-04-06T15:29:06.393Z,1.85
2023-04-06T15:31:38.095Z,1.77
2023-04-06T15:34:06.144Z,1.65
2023-04-06T15:36:32.871Z,1.58
2023-04-06T15:38:59.909Z,1.77
2023-04-06T15:41:27.438Z,1.90
2023-04-06T15:43:55.334Z,1.63
2023-04-06T15:46:22.681Z,1.55
2023-04-06T15:48:49.376Z,1.40
2023-04-06T15:51:19.591Z,1.83
2023-04-06T15:53:46.550Z,1.40
2023-04-06T15:56:16.058Z,1.80
2023-04-06T15:58:43.057Z,1.50
2023-04-06T16:01:13.702Z,1.80
2023-04-06T16:03:40.639Z,1.92
2023-04-06T16:06:08.849Z,1.80
2023-04-06T16:08:38.946Z,2.10
2023-04-06T16:11:06.270Z,2.28
2023-04-06T16:13:33.089Z,2.10
2023-04-06T16:16:04.285Z,2.30
2023-04-06T16:18:32.518Z,1.90
2023-04-06T16:21:01.283Z,1.88
2023-04-06T16:23:28.441Z,1.80
2023-04-06T16:25:56.455Z,2.10
2023-04-06T16:28:25.837Z,1.80
2023-04-06T16:30:53.103Z,1.90
2023-04-06T16:33:19.986Z,1.70
2023-04-06T16:35:46.644Z,1.98
2023-04-06T16:38:13.636Z,2.45
2023-04-06T16:40:40.577Z,2.00
2023-04-06T16:43:07.535Z,2.05
2023-04-06T16:45:34.278Z,2.00
2023-04-06T16:48:01.216Z,2.05
2023-04-06T16:50:27.878Z,1.85
2023-04-06T16:52:54.832Z,2.20
2023-04-06T16:55:21.532Z,2.13
2023-04-06T16:57:49.442Z,2.25
2023-04-06T17:00:18.809Z,1.88
2023-04-06T17:02:47.249Z,1.85
2023-04-06T17:05:14.263Z,2.05
2023-04-06T17:07:40.962Z,1.98
2023-04-06T17:10:07.805Z,2.15
2023-04-06T17:12:34.621Z,2.20
2023-04-06T17:15:01.205Z,2.00
2023-04-06T17:17:27.883Z,2.17
2023-04-06T17:19:54.522Z,1.88
2023-04-06T17:22:21.427Z,2.20
2023-04-06T17:24:48.851Z,2.13
2023-04-06T17:27:15.862Z,2.28
2023-04-06T17:29:45.069Z,2.33
2023-04-06T17:32:12.270Z,2.40
2023-04-06T17:34:39.070Z,2.47
2023-04-06T17:37:05.942Z,2.30
2023-04-06T17:39:32.655Z,2.40
2023-04-06T17:42:00.264Z,1.90
2023-04-06T17:44:26.869Z,2.10
2023-04-06T17:46:53.516Z,2.13
2023-04-06T17:49:20.350Z,2.03
2023-04-06T17:51:47.135Z,2.00
2023-04-06T17:54:13.786Z,1.95
2023-04-06T17:56:40.879Z,1.98
2023-04-06T17:59:10.613Z,2.00
2023-04-06T18:01:40.885Z,2.20
2023-04-06T18:04:07.679Z,1.95
2023-04-06T18:06:34.373Z,1.90
2023-04-06T18:09:01.318Z,1.77
2023-04-06T18:11:31.128Z,2.28
2023-04-06T18:13:58.152Z,1.80
2023-04-06T18:16:25.253Z,1.90
2023-04-06T18:18:52.308Z,2.05
2023-04-06T18:21:19.165Z,2.38
2023-04-06T18:23:46.928Z,2.22
2023-04-06T18:26:18.328Z,1.90
2023-04-06T18:28:45.454Z,1.97
2023-04-06T18:31:12.225Z,2.08
2023-04-06T18:33:38.839Z,2.13
2023-04-06T18:36:05.796Z,2.00
2023-04-06T18:38:32.422Z,2.03
2023-04-06T18:40:59.655Z,2.00
2023-04-06T18:43:26.530Z,2.15
2023-04-06T18:45:53.449Z,2.13
2023-04-06T18:48:20.756Z,2.72
2023-04-06T18:51:08.059Z,2.50
2023-04-06T18:53:36.736Z,2.40
2023-04-06T18:56:12.906Z,2.50
2023-04-06T18:58:42.617Z,2.28
2023-04-06T19:01:09.657Z,2.40
2023-04-06T19:03:37.087Z,2.25
2023-04-06T19:06:09.919Z,2.22
2023-04-06T19:08:36.965Z,2.28
2023-04-06T19:11:08.033Z,2.30
2023-04-06T19:13:35.090Z,2.35
2023-04-06T19:16:02.117Z,2.55
2023-04-06T19:18:29.194Z,2.53
2023-04-06T19:20:56.215Z,3.20
2023-04-06T19:23:22.989Z,2.80
2023-04-06T19:25:49.765Z,2.55
2023-04-06T19:28:20.194Z,2.60
2023-04-06T19:30:47.426Z,2.90
2023-04-06T19:33:16.530Z,2.70
2023-04-06T19:35:43.309Z,2.50
2023-04-06T19:38:10.223Z,2.47
2023-04-06T19:40:37.183Z,2.63
2023-04-06T19:43:03.915Z,2.50
2023-04-06T19:45:30.882Z,2.83
2023-04-06T19:47:57.745Z,3.03
2023-04-06T19:50:24.975Z,2.90
2023-04-06T19:52:53.635Z,2.78
2023-04-06T19:55:20.418Z,2.75
2023-04-06T19:57:47.160Z,2.60
2023-04-06T20:00:14.635Z,2.83
2023-04-06T20:02:41.559Z,2.53
2023-04-06T20:05:08.844Z,2.90
2023-04-06T20:07:38.963Z,2.58
2023-04-06T20:10:07.300Z,2.83
2023-04-06T20:12:34.544Z,2.88
2023-04-06T20:15:01.240Z,2.90
2023-04-06T20:17:28.078Z,2.95
2023-04-06T20:19:55.051Z,3.17
2023-04-06T20:22:21.973Z,2.85
2023-04-06T20:24:48.967Z,2.90
2023-04-06T20:27:15.913Z,3.50
2023-04-06T20:29:42.784Z,2.90
2023-04-06T20:32:10.947Z,3.20
2023-04-06T20:34:38.000Z,3.08
2023-04-06T20:37:05.481Z,3.00
2023-04-06T20:39:32.819Z,3.33
2023-04-06T20:42:01.203Z,3.42
2023-04-06T20:44:28.975Z,3.03
2023-04-06T20:46:56.321Z,2.85
2023-04-06T20:49:24.303Z,3.00
2023-04-06T20:51:51.825Z,3.10
2023-04-06T20:54:19.221Z,3.25
2023-04-06T20:56:46.368Z,3.10
2023-04-06T20:59:13.261Z,3.10
2023-04-06T21:01:40.372Z,3.60
2023-04-06T21:04:07.438Z,3.50
2023-04-06T21:06:34.303Z,3.35
2023-04-06T21:09:01.493Z,3.15
2023-04-06T21:11:28.327Z,3.38
2023-04-06T21:13:54.873Z,3.30
2023-04-06T21:16:22.081Z,3.88
2023-04-06T21:18:48.671Z,3.70
2023-04-06T21:21:15.444Z,3.63
2023-04-06T21:23:42.046Z,3.30
2023-04-06T21:26:08.993Z,3.63
2023-04-06T21:28:35.720Z,3.85
2023-04-06T21:31:06.198Z,3.65
2023-04-06T21:33:32.740Z,3.40
2023-04-06T21:36:03.732Z,4.03
2023-04-06T21:38:30.584Z,3.88
2023-04-06T21:40:57.467Z,3.42
2023-04-06T21:43:24.202Z,3.70
2023-04-06T21:45:51.423Z,4.03
2023-04-06T21:48:21.152Z,4.10
2023-04-06T21:50:48.226Z,4.03
2023-04-06T21:53:15.136Z,3.83
2023-04-06T21:55:45.470Z,3.92
2023-04-06T21:58:12.623Z,3.92
2023-04-06T22:00:39.416Z,4.60
2023-04-06T22:03:06.825Z,4.05
2023-04-06T22:05:33.874Z,4.18
2023-04-06T22:08:03.912Z,3.80
2023-04-06T22:10:31.939Z,4.03
2023-04-06T22:12:59.199Z,4.13
2023-04-06T22:15:28.685Z,4.03
2023-04-06T22:17:55.492Z,4.20
2023-04-06T22:20:25.221Z,4.35
2023-04-06T22:22:53.146Z,4.60
2023-04-06T22:25:19.929Z,4.10
2023-04-06T22:27:46.935Z,4.57
2023-04-06T22:30:20.119Z,4.68
2023-04-06T22:32:49.179Z,4.75
2023-04-06T22:35:16.395Z,5.22
2023-04-06T22:37:43.580Z,4.65
2023-04-06T22:40:11.273Z,4.68
2023-04-06T22:42:38.006Z,5.28
2023-04-06T22:45:05.265Z,5.50
2023-04-06T22:47:32.492Z,5.40
2023-04-06T22:50:01.841Z,5.60
2023-04-06T22:52:28.710Z,5.25
2023-04-06T22:54:55.909Z,5.32
2023-04-06T22:57:22.784Z,5.15
2023-04-06T22:59:49.603Z,5.68
2023-04-06T23:02:16.931Z,5.00
2023-04-06T23:04:46.103Z,4.60
2023-04-06T23:07:15.878Z,5.18
2023-04-06T23:09:44.343Z,4.55
2023-04-06T23:12:11.771Z,4.95
2023-04-06T23:14:38.623Z,4.82
2023-04-06T23:17:05.953Z,4.70
2023-04-06T23:19:32.783Z,4.53
2023-04-06T23:22:01.115Z,4.55
2023-04-06T23:24:27.951Z,4.43
2023-04-06T23:26:54.667Z,4.13
2023-04-06T23:29:22.505Z,4.20
2023-04-06T23:31:49.418Z,4.43
2023-04-06T23:34:19.201Z,4.20
2023-04-06T23:36:46.115Z,4.15
2023-04-06T23:39:12.776Z,4.10
2023-04-06T23:41:39.370Z,3.58
2023-04-06T23:44:06.453Z,4.07
2023-04-06T23:46:33.325Z,3.75
2023-04-06T23:49:02.238Z,3.50
2023-04-06T23:51:29.088Z,3.67
2023-04-06T23:53:55.965Z,3.95
2023-04-06T23:56:22.814Z,3.47
2023-04-06T23:58:49.373Z,3.25
